Time;durP1;ratioP1;P1;durP2;ratioP2;P2;SDS_P1;SDS_P2;PMS_P1;PMS_P2;Temp;Humidity;BMP_temperature;BMP_pressure;BME280_temperature;BME280_humidity;BME280_pressure;Samples;Min_cycle;Max_cycle;Signal;HPM_P1;HPM_P2
2023/06/05 00:00:57;;;;;;;1999.90;999.90;;;18.20;6.30;;;;;;5012846;28;20176;-69
2023/06/05 00:03:24;;;;;;;1999.90;999.90;;;18.20;6.50;;;;;;5012748;28;20166;-69
2023/06/05 00:05:49;;;;;;;1999.90;999.90;;;18.20;6.90;;;;;;5012651;28;20221;-68
2023/06/05 00:08:16;;;;;;;1999.90;999.90;;;18.20;7.40;;;;;;5012811;28;20913;-68
2023/06/05 00:10:41;;;;;;;1999.90;999.90;;;18.10;7.90;;;;;;5012705;28;20188;-69
2023/06/05 00:13:07;;;;;;;1999.90;999.90;;;18.10;8.20;;;;;;5012476;28;20406;-69
2023/06/05 00:15:35;;;;;;;1999.90;999.90;;;18.10;8.50;;;;;;5012561;28;20231;-69
2023/06/05 00:18:02;;;;;;;1999.90;999.90;;;18.10;8.40;;;;;;5012597;28;20161;-69
2023/06/05 00:20:28;;;;;;;1999.90;999.90;;;17.90;8.60;;;;;;5012538;28;20441;-69
2023/06/05 00:22:54;;;;;;;1999.90;999.90;;;17.90;9.50;;;;;;5012515;28;20936;-69
2023/06/05 00:25:20;;;;;;;1999.90;999.90;;;17.90;9.90;;;;;;5012615;28;20408;-69
2023/06/05 00:27:46;;;;;;;1999.90;999.90;;;17.80;10.20;;;;;;5012461;28;20920;-69
2023/06/05 00:30:13;;;;;;;1999.90;999.90;;;17.80;10.40;;;;;;5022591;28;20199;-69
2023/06/05 00:32:39;;;;;;;1999.90;999.90;;;17.80;11.00;;;;;;5024286;28;20178;-68
2023/06/05 00:35:07;;;;;;;1999.90;999.90;;;17.70;11.10;;;;;;5023677;28;20459;-69
2023/06/05 00:37:33;;;;;;;1999.90;999.90;;;17.60;11.50;;;;;;5022157;28;20434;-68
2023/06/05 00:39:59;;;;;;;1999.90;999.90;;;17.60;12.60;;;;;;5021896;28;20446;-69
2023/06/05 00:42:26;;;;;;;1999.90;999.90;;;17.50;12.60;;;;;;5025781;28;20431;-69
2023/06/05 00:44:52;;;;;;;1999.90;999.90;;;17.30;13.00;;;;;;5012364;28;20764;-68
2023/06/05 00:47:18;;;;;;;1999.90;999.90;;;17.10;14.10;;;;;;5012278;28;20804;-69
2023/06/05 00:49:44;;;;;;;1999.90;999.90;;;16.90;15.50;;;;;;5012182;28;20404;-69
2023/06/05 00:52:11;;;;;;;1999.90;999.90;;;16.90;16.80;;;;;;5011514;28;20404;-68
2023/06/05 00:54:37;;;;;;;1999.90;999.90;;;16.80;17.90;;;;;;5012149;28;20447;-69
2023/06/05 00:57:03;;;;;;;1999.90;999.90;;;16.80;19.20;;;;;;5012085;28;20461;-69
2023/06/05 00:59:31;;;;;;;1999.90;999.90;;;16.90;20.10;;;;;;5012255;28;20871;-69
2023/06/05 01:01:58;;;;;;;1999.90;999.90;;;16.80;20.60;;;;;;5011834;28;20410;-69
2023/06/05 01:04:23;;;;;;;1999.90;999.90;;;16.80;21.70;;;;;;5012089;28;20407;-69
2023/06/05 01:06:51;;;;;;;1999.90;999.90;;;16.80;22.40;;;;;;5011943;28;20452;-69
2023/06/05 01:09:18;;;;;;;1999.90;999.90;;;16.70;24.00;;;;;;5012280;28;20173;-69
2023/06/05 01:11:53;;;;;;;1999.90;999.90;;;16.70;25.30;;;;;;5011749;28;20899;-69
2023/06/05 01:14:27;;;;;;;1999.90;999.90;;;16.70;26.40;;;;;;5012108;28;20434;-69
2023/06/05 01:16:54;;;;;;;1999.90;999.90;;;16.70;27.80;;;;;;5011915;28;20505;-68
2023/06/05 01:19:28;;;;;;;1999.90;999.90;;;16.60;28.50;;;;;;5011980;28;20410;-69
2023/06/05 01:21:55;;;;;;;1999.90;999.90;;;16.60;30.10;;;;;;5012366;28;20400;-68
2023/06/05 01:24:25;;;;;;;1999.90;999.90;;;16.60;32.20;;;;;;5012075;28;20416;-68
2023/06/05 01:27:00;;;;;;;1999.90;999.90;;;16.50;33.80;;;;;;5011846;28;20436;-69
2023/06/05 01:30:08;;;;;;;1999.90;999.90;;;16.40;36.80;;;;;;5011915;28;20465;-68
2023/06/05 01:32:40;;;;;;;1999.90;999.90;;;16.30;39.80;;;;;;4963445;28;20406;-68
2023/06/05 01:35:08;;;;;;;1999.90;999.90;;;16.20;43.40;;;;;;5011693;28;20441;-68
2023/06/05 01:37:40;;;;;;;1999.90;999.90;;;16.10;47.70;;;;;;5011777;28;20411;-70
2023/06/05 01:40:11;;;;;;;1999.90;999.90;;;15.90;52.40;;;;;;5012024;28;20861;-69
2023/06/05 01:42:38;;;;;;;1999.90;999.90;;;15.80;57.50;;;;;;5011716;28;20405;-69
2023/06/05 01:45:06;;;;;;;1999.90;999.90;;;15.80;63.10;;;;;;5011689;28;20815;-69
2023/06/05 01:47:32;;;;;;;1999.90;999.90;;;15.80;68.70;;;;;;5011678;28;20411;-69
2023/06/05 01:49:58;;;;;;;1999.90;999.90;;;15.80;74.00;;;;;;5011648;28;20408;-68
2023/06/05 01:52:23;;;;;;;1999.90;999.90;;;15.80;79.10;;;;;;5011493;28;20408;-68
2023/06/05 01:54:49;;;;;;;1999.90;999.90;;;15.70;86.30;;;;;;5026320;28;20209;-68
2023/06/05 01:57:15;;;;;;;1999.90;999.90;;;15.70;90.90;;;;;;5026135;28;20190;-68
2023/06/05 01:59:43;;;;;;;1999.90;999.90;;;15.60;94.20;;;;;;5024073;28;20411;-68
2023/06/05 02:02:08;;;;;;;1999.90;999.90;;;15.50;97.10;;;;;;5027030;28;20458;-68
2023/06/05 02:04:34;;;;;;;1999.90;999.90;;;15.30;99.90;;;;;;5032907;28;20398;-68
2023/06/05 02:07:03;;;;;;;1999.90;999.90;;;15.20;99.90;;;;;;5031247;28;20549;-69
2023/06/05 02:09:32;;;;;;;1999.90;999.90;;;15.00;99.90;;;;;;5029352;28;20160;-68
2023/06/05 02:12:03;;;;;;;1999.90;999.90;;;15.00;99.90;;;;;;5026156;28;20410;-68
2023/06/05 02:14:35;;;;;;;1999.90;999.90;;;15.00;99.90;;;;;;5028735;28;20412;-68
2023/06/05 02:17:04;;;;;;;1999.90;999.90;;;14.90;99.90;;;;;;5028884;28;20629;-69
2023/06/05 02:19:30;;;;;;;1999.90;999.90;;;14.80;99.90;;;;;;5027459;28;20501;-69
2023/06/05 02:21:56;;;;;;;1999.90;999.90;;;14.80;99.90;;;;;;5026982;28;20420;-68
2023/06/05 02:24:22;;;;;;;1999.90;999.90;;;14.80;99.90;;;;;;5028322;28;20467;-68
2023/06/05 02:26:48;;;;;;;1999.90;999.90;;;14.90;99.90;;;;;;5028656;28;20198;-68
2023/06/05 02:29:14;;;;;;;1999.90;999.90;;;14.80;99.90;;;;;;5028004;28;20497;-68
2023/06/05 02:31:39;;;;;;;1999.90;999.90;;;14.90;99.90;;;;;;5026771;28;20163;-68
2023/06/05 02:34:05;;;;;;;1999.90;999.90;;;14.80;99.90;;;;;;5014463;28;20167;-68
2023/06/05 02:36:32;;;;;;;1999.90;999.90;;;14.70;99.90;;;;;;5014387;28;20209;-68
2023/06/05 02:38:59;;;;;;;1999.90;999.90;;;14.70;99.90;;;;;;5026025;28;20181;-68
2023/06/05 02:41:26;;;;;;;1999.90;999.90;;;14.60;99.90;;;;;;5033998;28;20410;-67
2023/06/05 02:43:53;;;;;;;1999.90;999.90;;;14.60;99.90;;;;;;5034043;28;20403;-67
2023/06/05 02:46:19;;;;;;;1999.90;999.90;;;14.50;99.90;;;;;;5034039;28;20428;-68
2023/06/05 02:48:44;;;;;;;1999.90;999.90;;;14.50;99.90;;;;;;5034224;28;20467;-68
2023/06/05 02:51:10;;;;;;;1999.90;999.90;;;14.50;99.90;;;;;;5033933;28;20180;-68
2023/06/05 02:53:36;;;;;;;1999.90;999.90;;;14.50;99.90;;;;;;5034092;28;20655;-68
2023/06/05 02:56:03;;;;;;;1999.90;999.90;;;14.50;99.90;;;;;;5033733;28;20455;-68
2023/06/05 02:58:28;;;;;;;1999.90;999.90;;;14.50;99.90;;;;;;5033811;28;20477;-68
2023/06/05 03:00:55;;;;;;;1999.90;999.90;;;14.50;99.90;;;;;;5033480;28;20501;-68
2023/06/05 03:03:29;;;;;;;1999.90;999.90;;;14.40;99.90;;;;;;5033794;28;20164;-68
2023/06/05 03:05:56;;;;;;;1999.90;999.90;;;14.40;99.90;;;;;;5033488;28;21006;-68
2023/06/05 03:08:22;;;;;;;1999.90;999.90;;;14.40;99.90;;;;;;5033663;28;20932;-68
2023/06/05 03:10:47;;;;;;;1999.90;999.90;;;14.40;99.90;;;;;;5033537;28;20502;-68
2023/06/05 03:13:13;;;;;;;1999.90;999.90;;;14.30;99.90;;;;;;5032892;28;20180;-68
2023/06/05 03:15:39;;;;;;;1999.90;999.90;;;14.20;99.90;;;;;;5040955;28;20203;-68
2023/06/05 03:18:05;;;;;;;1999.90;999.90;;;14.10;99.90;;;;;;5044007;28;20164;-68
2023/06/05 03:20:30;;;;;;;1999.90;999.90;;;14.10;99.90;;;;;;5044820;28;20531;-68
2023/06/05 03:22:56;;;;;;;1999.90;999.90;;;14.10;99.90;;;;;;5044928;28;20197;-68
2023/06/05 03:25:22;;;;;;;1999.90;999.90;;;14.10;99.90;;;;;;5045315;28;20185;-68
2023/06/05 03:27:49;;;;;;;1999.90;999.90;;;14.10;99.90;;;;;;5044837;28;20412;-69
2023/06/05 03:30:16;;;;;;;1999.90;999.90;;;14.00;99.90;;;;;;5044224;28;20176;-68
2023/06/05 03:32:42;;;;;;;1999.90;999.90;;;14.00;99.90;;;;;;5044650;28;20420;-68
2023/06/05 03:35:08;;;;;;;1999.90;999.90;;;14.00;99.90;;;;;;5043150;28;20452;-68
2023/06/05 03:37:34;;;;;;;1999.90;999.90;;;14.00;99.90;;;;;;5044275;28;20160;-68
2023/06/05 03:39:59;;;;;;;1999.90;999.90;;;14.10;99.90;;;;;;5045118;28;20424;-68
2023/06/05 03:42:25;;;;;;;1999.90;999.90;;;14.10;99.90;;;;;;5043141;28;20169;-68
2023/06/05 03:44:50;;;;;;;1999.90;999.90;;;14.00;99.90;;;;;;5043013;28;20188;-68
2023/06/05 03:47:16;;;;;;;1999.90;999.90;;;14.00;99.90;;;;;;5042870;28;20197;-68
2023/06/05 03:49:47;;;;;;;1999.90;999.90;;;14.00;99.90;;;;;;5043779;28;20638;-68
2023/06/05 03:52:14;;;;;;;1999.90;999.90;;;14.00;99.90;;;;;;5042113;28;20166;-68
2023/06/05 03:54:40;;;;;;;1999.90;999.90;;;14.00;99.90;;;;;;5041665;28;20487;-68
2023/06/05 03:57:09;;;;;;;1999.90;999.90;;;14.00;99.90;;;;;;5042416;28;20884;-68
2023/06/05 03:59:35;;;;;;;1999.90;999.90;;;14.00;99.90;;;;;;5040561;28;20584;-68
2023/06/05 04:02:02;;;;;;;1999.90;999.90;;;14.00;99.90;;;;;;5041758;28;20409;-68
2023/06/05 04:04:27;;;;;;;1999.90;999.90;;;14.00;99.90;;;;;;5045265;28;20176;-68
2023/06/05 04:06:56;;;;;;;1999.90;999.90;;;14.10;99.90;;;;;;5044622;28;20464;-68
2023/06/05 04:09:22;;;;;;;1999.90;999.90;;;14.10;99.90;;;;;;5044086;28;20165;-68
2023/06/05 04:11:49;;;;;;;1999.90;999.90;;;14.00;99.90;;;;;;5042989;28;20417;-68
2023/06/05 04:14:15;;;;;;;1999.90;999.90;;;14.00;99.90;;;;;;5041635;28;20425;-68
2023/06/05 04:16:43;;;;;;;1999.90;999.90;;;13.90;99.90;;;;;;5042854;28;20454;-68
2023/06/05 04:19:11;;;;;;;1999.90;999.90;;;13.90;99.90;;;;;;5043132;28;20173;-68
2023/06/05 04:21:37;;;;;;;1999.90;999.90;;;13.90;99.90;;;;;;5035819;28;20454;-68
2023/06/05 04:24:06;;;;;;;1999.90;999.90;;;13.90;99.90;;;;;;5032278;28;20404;-69
2023/06/05 04:26:36;;;;;;;1999.90;999.90;;;13.90;99.90;;;;;;5031634;28;20439;-69
2023/06/05 04:29:03;;;;;;;1999.90;999.90;;;13.90;99.90;;;;;;5032273;28;21091;-68
2023/06/05 04:31:32;;;;;;;1999.90;999.90;;;13.90;99.90;;;;;;5031926;28;20484;-68
2023/06/05 04:33:58;;;;;;;1999.90;999.90;;;13.90;99.90;;;;;;5032293;28;21041;-68
2023/06/05 04:36:27;;;;;;;1999.90;999.90;;;14.10;99.90;;;;;;5031994;28;20520;-68
2023/06/05 04:38:52;;;;;;;1999.90;999.90;;;14.10;99.90;;;;;;5031972;28;20458;-69
2023/06/05 04:41:18;;;;;;;1999.90;999.90;;;14.30;99.90;;;;;;5031943;28;20407;-68
2023/06/05 04:43:43;;;;;;;1999.90;999.90;;;14.30;99.90;;;;;;5032362;28;20169;-68
2023/06/05 04:46:09;;;;;;;1999.90;999.90;;;14.30;99.90;;;;;;5032162;28;20681;-68
2023/06/05 04:48:34;;;;;;;1999.90;999.90;;;14.30;99.90;;;;;;5032043;28;20611;-69
2023/06/05 04:51:00;;;;;;;1999.90;999.90;;;14.30;99.90;;;;;;5031757;28;20183;-68
2023/06/05 04:53:30;;;;;;;1999.90;999.90;;;14.30;99.90;;;;;;5031970;28;20263;-68
2023/06/05 04:56:00;;;;;;;1999.90;999.90;;;14.40;99.90;;;;;;5031762;28;20206;-68
2023/06/05 04:58:26;;;;;;;1999.90;999.90;;;14.40;99.90;;;;;;5032082;28;20435;-69
2023/06/05 05:00:51;;;;;;;1999.90;999.90;;;14.40;99.90;;;;;;5031762;28;20399;-69
2023/06/05 05:03:17;;;;;;;1999.90;999.90;;;14.40;99.90;;;;;;5031690;28;20493;-69
2023/06/05 05:05:43;;;;;;;1999.90;999.90;;;14.40;99.90;;;;;;5031647;28;20221;-68
2023/06/05 05:08:08;;;;;;;1999.90;999.90;;;14.40;99.90;;;;;;5031621;28;20187;-68
2023/06/05 05:10:34;;;;;;;1999.90;999.90;;;14.40;99.90;;;;;;5031736;28;20195;-69
2023/06/05 05:13:03;;;;;;;1999.90;999.90;;;14.40;99.90;;;;;;5031683;28;20261;-69
2023/06/05 05:15:29;;;;;;;1999.90;999.90;;;14.40;99.90;;;;;;5031712;28;20218;-68
2023/06/05 05:17:56;;;;;;;1999.90;999.90;;;14.50;99.90;;;;;;5031887;28;20773;-68
2023/06/05 05:20:22;;;;;;;1999.90;999.90;;;14.70;99.90;;;;;;5031714;28;20180;-68
2023/06/05 05:22:48;;;;;;;1999.90;999.90;;;14.70;99.90;;;;;;5031654;28;20910;-69
2023/06/05 05:25:13;;;;;;;1999.90;999.90;;;14.80;99.90;;;;;;5031543;28;20548;-68
2023/06/05 05:27:39;;;;;;;1999.90;999.90;;;14.90;99.90;;;;;;5031678;28;20179;-68
2023/06/05 05:30:07;;;;;;;1999.90;999.90;;;15.00;99.90;;;;;;5031735;28;20183;-68
2023/06/05 05:32:32;;;;;;;1999.90;999.90;;;15.10;99.90;;;;;;5031384;28;20417;-68
2023/06/05 05:34:58;;;;;;;1999.90;999.90;;;15.20;99.90;;;;;;5031449;28;20444;-69
2023/06/05 05:37:25;;;;;;;1999.90;999.90;;;15.20;99.90;;;;;;5033227;28;20776;-68
2023/06/05 05:39:51;;;;;;;1999.90;999.90;;;15.10;99.90;;;;;;5035552;28;20908;-68
2023/06/05 05:42:17;;;;;;;1999.90;999.90;;;15.10;99.90;;;;;;5034950;28;20467;-68
2023/06/05 05:44:43;;;;;;;1999.90;999.90;;;15.00;99.90;;;;;;5035361;28;20193;-68
2023/06/05 05:47:10;;;;;;;1999.90;999.90;;;14.90;99.90;;;;;;5035361;28;20188;-68
2023/06/05 05:49:36;;;;;;;1999.90;999.90;;;15.00;99.90;;;;;;5035316;28;20924;-68
2023/06/05 05:52:01;;;;;;;1999.90;999.90;;;15.10;99.90;;;;;;5034846;28;20416;-68
2023/06/05 05:54:27;;;;;;;1999.90;999.90;;;15.30;99.90;;;;;;5035098;28;20637;-69
2023/06/05 05:56:54;;;;;;;1999.90;999.90;;;15.40;99.90;;;;;;5034980;28;20204;-69
2023/06/05 05:59:19;;;;;;;1999.90;999.90;;;15.50;99.90;;;;;;5035039;28;20171;-69
2023/06/05 06:01:45;;;;;;;1999.90;999.90;;;15.60;99.90;;;;;;5034717;28;20920;-69
2023/06/05 06:04:11;;;;;;;1999.90;999.90;;;15.70;99.90;;;;;;5034985;28;20174;-69
2023/06/05 06:06:38;;;;;;;1999.90;999.90;;;15.90;99.90;;;;;;5034736;28;20462;-69
2023/06/05 06:09:04;;;;;;;1999.90;999.90;;;15.90;99.90;;;;;;5046147;28;20403;-68
2023/06/05 06:11:29;;;;;;;1999.90;999.90;;;15.90;99.90;;;;;;5045971;28;20419;-68
2023/06/05 06:13:55;;;;;;;1999.90;999.90;;;15.90;99.90;;;;;;5047189;28;20176;-70
2023/06/05 06:16:21;;;;;;;1999.90;999.90;;;15.90;99.90;;;;;;5046805;28;20206;-68
2023/06/05 06:18:46;;;;;;;1999.90;999.90;;;16.00;99.90;;;;;;5047507;28;20620;-68
2023/06/05 06:21:12;;;;;;;1999.90;999.90;;;16.10;99.90;;;;;;5045236;28;20199;-68
2023/06/05 06:23:38;;;;;;;1999.90;999.90;;;16.10;99.90;;;;;;5035154;28;20237;-68
2023/06/05 06:26:06;;;;;;;1999.90;999.90;;;16.10;99.90;;;;;;5034485;28;20427;-68
2023/06/05 06:28:32;;;;;;;1999.90;999.90;;;16.20;99.90;;;;;;5034511;28;20184;-69
2023/06/05 06:30:57;;;;;;;1999.90;999.90;;;16.00;99.90;;;;;;5034219;28;20419;-68
2023/06/05 06:33:24;;;;;;;1999.90;999.90;;;16.00;99.90;;;;;;5034319;28;20874;-68
2023/06/05 06:35:49;;;;;;;1999.90;999.90;;;15.90;99.90;;;;;;5034405;28;20208;-68
2023/06/05 06:38:16;;;;;;;1999.90;999.90;;;16.10;99.90;;;;;;5034346;28;20977;-68
2023/06/05 06:40:42;;;;;;;1999.90;999.90;;;16.00;99.90;;;;;;5034268;28;20175;-68
2023/06/05 06:43:07;;;;;;;1999.90;999.90;;;16.10;99.90;;;;;;5034000;28;20404;-68
2023/06/05 06:45:33;;;;;;;1999.90;999.90;;;16.20;99.90;;;;;;5034026;28;20206;-68
2023/06/05 06:47:59;;;;;;;1999.90;999.90;;;16.20;99.90;;;;;;5033509;28;20234;-68
2023/06/05 06:50:24;;;;;;;1999.90;999.90;;;16.10;99.90;;;;;;5033766;28;20271;-68
2023/06/05 06:52:50;;;;;;;1999.90;999.90;;;16.10;99.90;;;;;;5033863;28;20176;-68
2023/06/05 06:55:16;;;;;;;1999.90;999.90;;;16.30;99.90;;;;;;5033828;28;20192;-68
2023/06/05 06:57:41;;;;;;;1999.90;999.90;;;16.30;99.90;;;;;;5033931;28;20535;-68
2023/06/05 07:00:09;;;;;;;1999.90;999.90;;;16.50;99.90;;;;;;5033938;28;20534;-68
2023/06/05 07:02:36;;;;;;;1999.90;999.90;;;16.50;99.90;;;;;;5033460;28;20604;-68
2023/06/05 07:05:02;;;;;;;1999.90;999.90;;;16.80;99.90;;;;;;5033953;28;20418;-68
2023/06/05 07:07:27;;;;;;;1999.90;999.90;;;16.80;99.90;;;;;;5033417;28;20453;-68
2023/06/05 07:09:53;;;;;;;1999.90;999.90;;;16.90;99.90;;;;;;5033760;28;20413;-69
2023/06/05 07:12:20;;;;;;;1999.90;999.90;;;16.90;99.90;;;;;;5033327;28;20671;-68
2023/06/05 07:14:46;;;;;;;1999.90;999.90;;;17.10;99.90;;;;;;5033521;28;20410;-68
2023/06/05 07:17:12;;;;;;;1999.90;999.90;;;17.10;99.90;;;;;;5039806;28;20422;-68
2023/06/05 07:19:38;;;;;;;1999.90;999.90;;;17.10;99.90;;;;;;5047269;28;20414;-68
2023/06/05 07:22:04;;;;;;;1999.90;999.90;;;17.20;99.90;;;;;;5048190;28;20411;-69
2023/06/05 07:24:30;;;;;;;1999.90;999.90;;;17.10;99.90;;;;;;5048164;28;20170;-68
2023/06/05 07:26:58;;;;;;;1999.90;999.90;;;17.00;99.90;;;;;;5043547;28;20794;-68
2023/06/05 07:29:24;;;;;;;1999.90;999.90;;;17.10;99.90;;;;;;5033240;28;20495;-68
2023/06/05 07:31:51;;;;;;;1999.90;999.90;;;17.20;99.90;;;;;;5032842;28;20405;-69
2023/06/05 07:34:21;;;;;;;1999.90;999.90;;;17.30;99.90;;;;;;5044899;28;20452;-69
2023/06/05 07:36:48;;;;;;;1999.90;999.90;;;17.40;99.90;;;;;;5045367;28;20462;-69
2023/06/05 07:39:15;;;;;;;1999.90;999.90;;;17.50;99.90;;;;;;5041328;28;20407;-69
2023/06/05 07:41:41;;;;;;;1999.90;999.90;;;17.70;99.90;;;;;;5042959;28;20409;-69
2023/06/05 07:44:11;;;;;;;1999.90;999.90;;;17.60;99.90;;;;;;5044830;28;20437;-69
2023/06/05 07:46:39;;;;;;;1999.90;999.90;;;17.70;99.90;;;;;;5034158;28;20192;-69
2023/06/05 07:49:05;;;;;;;1999.90;999.90;;;17.70;99.90;;;;;;5032945;28;20421;-68
2023/06/05 07:51:35;;;;;;;1999.90;999.90;;;17.80;99.90;;;;;;5032645;28;20413;-69
2023/06/05 07:54:08;;;;;;;1999.90;999.90;;;17.90;99.90;;;;;;5033027;28;20166;-68
2023/06/05 07:56:34;;;;;;;1999.90;999.90;;;17.90;99.90;;;;;;5032798;28;20459;-69
2023/06/05 07:59:00;;;;;;;1999.90;999.90;;;17.90;99.90;;;;;;5018662;28;20417;-69
2023/06/05 08:01:27;;;;;;;1999.90;999.90;;;18.20;99.90;;;;;;5031234;28;20415;-68
2023/06/05 08:03:53;;;;;;;1999.90;999.90;;;18.20;99.90;;;;;;5022525;28;20404;-69
2023/06/05 08:06:19;;;;;;;1999.90;999.90;;;18.30;99.90;;;;;;5015899;28;20457;-68
2023/06/05 08:08:45;;;;;;;1999.90;999.90;;;18.30;99.90;;;;;;5012835;28;20510;-68
2023/06/05 08:11:11;;;;;;;1999.90;999.90;;;18.40;99.90;;;;;;5012473;28;20973;-68
2023/06/05 08:13:38;;;;;;;1999.90;999.90;;;18.60;99.90;;;;;;5012656;28;20169;-68
2023/06/05 08:16:04;;;;;;;1999.90;999.90;;;18.60;99.90;;;;;;5012800;28;20222;-68
2023/06/05 08:18:30;;;;;;;1999.90;999.90;;;18.60;99.90;;;;;;5012738;28;20491;-70
2023/06/05 08:20:55;;;;;;;1999.90;999.90;;;18.60;99.90;;;;;;5012340;28;20491;-68
2023/06/05 08:23:21;;;;;;;1999.90;999.90;;;18.90;99.90;;;;;;5025997;28;20203;-68
2023/06/05 08:25:48;;;;;;;1999.90;999.90;;;19.10;99.90;;;;;;5021151;28;20254;-68
2023/06/05 08:28:16;;;;;;;1999.90;999.90;;;19.00;99.90;;;;;;5012523;28;20160;-68
2023/06/05 08:30:44;;;;;;;1999.90;999.90;;;19.00;99.90;;;;;;5012404;28;20407;-70
2023/06/05 08:33:09;;;;;;;1999.90;999.90;;;19.10;99.90;;;;;;5012211;28;20966;-68
2023/06/05 08:35:35;;;;;;;1999.90;999.90;;;19.30;99.90;;;;;;5012131;28;20490;-68
2023/06/05 08:38:03;;;;;;;1999.90;999.90;;;19.50;99.90;;;;;;5012436;28;20167;-68
2023/06/05 08:40:29;;;;;;;1999.90;999.90;;;19.70;99.90;;;;;;5012281;28;20174;-68
2023/06/05 08:42:56;;;;;;;1999.90;999.90;;;19.90;99.90;;;;;;5012072;28;20418;-68
2023/06/05 08:45:21;;;;;;;1999.90;999.90;;;20.00;99.90;;;;;;5012187;28;20420;-68
2023/06/05 08:47:50;;;;;;;1999.90;999.90;;;20.10;99.90;;;;;;5012225;28;20755;-68
2023/06/05 08:50:16;;;;;;;1999.90;999.90;;;20.20;99.90;;;;;;5012232;28;20548;-68
2023/06/05 08:52:43;;;;;;;1999.90;999.90;;;20.20;98.20;;;;;;5011895;28;20387;-68
2023/06/05 08:55:10;;;;;;;1999.90;999.90;;;20.10;94.50;;;;;;5008997;28;20767;-68
2023/06/05 08:57:39;;;;;;;1999.90;999.90;;;20.30;97.40;;;;;;5011786;28;20412;-68
2023/06/05 09:00:12;;;;;;;1999.90;999.90;;;20.30;96.80;;;;;;5011936;28;20471;-68
2023/06/05 09:02:47;;;;;;;1999.90;999.90;;;20.20;97.20;;;;;;5011102;28;20438;-69
2023/06/05 09:05:14;;;;;;;1999.90;999.90;;;20.40;95.50;;;;;;5011537;28;20905;-69
2023/06/05 09:07:40;;;;;;;1999.90;999.90;;;20.30;94.80;;;;;;5011754;28;20417;-68
2023/06/05 09:10:20;;;;;;;1999.90;999.90;;;20.30;95.50;;;;;;5011391;28;20882;-69
2023/06/05 09:12:57;;;;;;;1999.90;999.90;;;20.50;96.80;;;;;;5014059;28;20408;-69
2023/06/05 09:15:23;;;;;;;1999.90;999.90;;;20.60;95.10;;;;;;5015123;28;20495;-68
2023/06/05 09:18:12;;;;;;;1999.90;999.90;;;20.80;96.30;;;;;;5015681;28;20479;-68
2023/06/05 09:20:39;;;;;;;1999.90;999.90;;;21.10;97.10;;;;;;5015540;28;20550;-68
2023/06/05 09:23:26;;;;;;;1999.90;999.90;;;21.20;98.50;;;;;;5014865;28;20406;-68
2023/06/05 09:25:53;;;;;;;1999.90;999.90;;;21.40;98.20;;;;;;5015647;28;20464;-69
2023/06/05 09:28:19;;;;;;;1999.90;999.90;;;21.70;98.00;;;;;;5015429;28;20468;-68
2023/06/05 09:30:57;;;;;;;1999.90;999.90;;;22.00;95.90;;;;;;5015165;28;21170;-68
2023/06/05 09:33:24;;;;;;;1999.90;999.90;;;21.90;90.30;;;;;;5015341;28;20385;-68
2023/06/05 09:36:03;;;;;;;1999.90;999.90;;;22.00;93.00;;;;;;5015140;28;20463;-68
2023/06/05 09:38:30;;;;;;;1999.90;999.90;;;22.10;84.80;;;;;;5014923;28;20411;-68
2023/06/05 09:41:06;;;;;;;1999.90;999.90;;;22.00;85.20;;;;;;5014978;28;20483;-68
2023/06/05 09:43:33;;;;;;;1999.90;999.90;;;22.10;83.50;;;;;;5025960;28;20491;-69
2023/06/05 09:46:05;;;;;;;1999.90;999.90;;;22.10;84.50;;;;;;5028708;28;20405;-69
2023/06/05 09:48:32;;;;;;;1999.90;999.90;;;22.10;74.30;;;;;;5029936;28;20981;-69
2023/06/05 09:51:11;;;;;;;1999.90;999.90;;;22.20;75.50;;;;;;5029190;28;20418;-69
2023/06/05 09:53:50;;;;;;;1999.90;999.90;;;22.40;72.50;;;;;;5028874;28;20433;-69
2023/06/05 09:56:21;;;;;;;1999.90;999.90;;;22.70;70.50;;;;;;5029232;28;20464;-70
2023/06/05 09:58:51;;;;;;;1999.90;999.90;;;22.90;66.60;;;;;;5030709;28;20432;-69
2023/06/05 10:01:22;;;;;;;1999.90;999.90;;;23.10;65.80;;;;;;5029237;28;20411;-68
2023/06/05 10:04:06;;;;;;;1999.90;999.90;;;23.30;59.40;;;;;;5029332;28;20481;-69
2023/06/05 10:06:33;;;;;;;1999.90;999.90;;;23.50;55.70;;;;;;5029736;28;20914;-67
2023/06/05 10:09:00;;;;;;;1999.90;999.90;;;23.50;55.60;;;;;;5029854;28;20419;-68
2023/06/05 10:11:26;;;;;;;1999.90;999.90;;;23.70;57.00;;;;;;5028894;28;20396;-68
2023/06/05 10:13:53;;;;;;;1999.90;999.90;;;23.90;54.40;;;;;;5029995;28;20458;-68
2023/06/05 10:16:20;;;;;;;1999.90;999.90;;;23.80;48.00;;;;;;5028507;28;20482;-69
2023/06/05 10:18:47;;;;;;;1999.90;999.90;;;23.50;53.10;;;;;;5029539;28;20473;-68
2023/06/05 10:21:17;;;;;;;1999.90;999.90;;;23.40;47.50;;;;;;5029536;28;20917;-68
2023/06/05 10:24:12;;;;;;;1999.90;999.90;;;23.50;53.20;;;;;;5027230;28;20476;-68
2023/06/05 10:26:46;;;;;;;1999.90;999.90;;;23.80;49.20;;;;;;5013273;28;20402;-67
2023/06/05 10:29:50;;;;;;;1999.90;999.90;;;23.80;46.40;;;;;;5029811;28;20801;-68
2023/06/05 10:32:45;;;;;;;1999.90;999.90;;;24.10;40.00;;;;;;5030256;28;20442;-68
2023/06/05 10:35:32;;;;;;;1999.90;999.90;;;24.00;36.30;;;;;;5028517;28;20445;-68
2023/06/05 10:38:30;;;;;;;1999.90;999.90;;;24.00;38.90;;;;;;5029501;28;20381;-68
2023/06/05 10:41:00;;;;;;;1999.90;999.90;;;23.90;36.40;;;;;;5019401;28;20427;-68
2023/06/05 10:43:27;;;;;;;1999.90;999.90;;;23.80;37.10;;;;;;5029024;28;20386;-68
2023/06/05 10:45:54;;;;;;;1999.90;999.90;;;24.30;35.60;;;;;;5029609;28;20435;-68
2023/06/05 10:48:20;;;;;;;1999.90;999.90;;;24.80;34.90;;;;;;5028804;28;20476;-68
2023/06/05 10:50:45;;;;;;;1999.90;999.90;;;25.10;29.50;;;;;;5028894;28;20700;-68
2023/06/05 10:53:45;;;;;;;1999.90;999.90;;;25.20;26.60;;;;;;5029237;28;20180;-68
2023/06/05 10:56:49;;;;;;;1999.90;999.90;;;25.10;24.70;;;;;;5029158;28;20210;-68
2023/06/05 10:59:15;;;;;;;1999.90;999.90;;;25.20;23.10;;;;;;5028162;28;20419;-69
2023/06/05 11:01:41;;;;;;;1999.90;999.90;;;25.20;24.00;;;;;;5028188;28;20438;-71
2023/06/05 11:04:07;;;;;;;1999.90;999.90;;;25.40;23.60;;;;;;5029306;28;20168;-68
2023/06/05 11:06:32;;;;;;;1999.90;999.90;;;25.50;22.40;;;;;;5028565;28;20216;-69
2023/06/05 11:09:14;;;;;;;1999.90;999.90;;;25.80;21.80;;;;;;5028935;28;20418;-70
2023/06/05 11:12:01;;;;;;;1999.90;999.90;;;26.10;21.40;;;;;;5028055;28;20314;-69
2023/06/05 11:14:43;;;;;;;1999.90;999.90;;;26.20;19.90;;;;;;5027892;28;20907;-68
2023/06/05 11:17:28;;;;;;;1999.90;999.90;;;25.80;15.70;;;;;;5029240;28;20497;-68
2023/06/05 11:19:53;;;;;;;1999.90;999.90;;;25.60;17.40;;;;;;5029483;28;20387;-69
2023/06/05 11:22:20;;;;;;;1999.90;999.90;;;25.70;19.20;;;;;;5027747;28;20481;-69
2023/06/05 11:24:45;;;;;;;1999.90;999.90;;;26.10;19.20;;;;;;5028152;28;20176;-69
2023/06/05 11:27:41;;;;;;;1999.90;999.90;;;25.90;15.30;;;;;;5029700;28;20947;-69
2023/06/05 11:30:12;;;;;;;1999.90;999.90;;;25.70;14.80;;;;;;5028491;28;20164;-68
2023/06/05 11:32:37;;;;;;;1999.90;999.90;;;26.00;15.40;;;;;;5027776;28;20457;-69
2023/06/05 11:35:04;;;;;;;1999.90;999.90;;;26.10;13.00;;;;;;5028246;28;20472;-69
2023/06/05 11:37:32;;;;;;;1999.90;999.90;;;26.40;14.10;;;;;;5028078;28;20188;-69
2023/06/05 11:39:58;;;;;;;1999.90;999.90;;;26.60;13.80;;;;;;5027750;28;20393;-70
2023/06/05 11:42:24;;;;;;;1999.90;999.90;;;26.70;13.70;;;;;;5028475;28;20427;-68
2023/06/05 11:44:50;;;;;;;1999.90;999.90;;;26.00;11.20;;;;;;5027361;28;20741;-68
2023/06/05 11:47:26;;;;;;;1999.90;999.90;;;25.50;11.40;;;;;;5028421;28;20515;-69
2023/06/05 11:49:52;;;;;;;1999.90;999.90;;;25.30;14.10;;;;;;5028312;28;20180;-70
2023/06/05 11:52:22;;;;;;;1999.90;999.90;;;25.50;14.70;;;;;;5027546;28;20924;-69
2023/06/05 11:55:05;;;;;;;1999.90;999.90;;;25.60;12.80;;;;;;5028192;28;20267;-69
2023/06/05 11:57:44;;;;;;;1999.90;999.90;;;25.70;10.90;;;;;;5029060;28;20454;-70
2023/06/05 12:00:14;;;;;;;1999.90;999.90;;;26.00;12.30;;;;;;5027561;28;20754;-69
2023/06/05 12:02:42;;;;;;;1999.90;999.90;;;26.20;10.90;;;;;;5027779;28;20390;-69
2023/06/05 12:05:09;;;;;;;1999.90;999.90;;;26.20;10.40;;;;;;5027187;28;20507;-68